Whitesboro, NY

4:20 PM EDT on June 02, 2015 (GMT -0400)
Harts Hill | | Change Station
CLOSE
Current Station
Personal Weather Station
Location: Whitesboro, NY
Elevation: 682 ft
Nearby Weather Stations

Elev 682 ft 43.11 °N, 75.32 °W | Updated 1 minute ago

Mostly Cloudy
Mostly Cloudy
62.2 °F
Feels Like 62.2 °F
N
0.0
Wind Variable Wind from WNW
Gusts 3.0 mph

Today
High -- | Low -- °F
--% Chance of Precip.
Yesterday
High -- | Low -- °F
Precip. -- in
5:24 AM 8:34 PM
Full, 100% visible
Pressure 30.15 in
Visibility 10.0 miles
Clouds Mostly Cloudy 2900 ft
Mostly Cloudy 3700 ft
Mostly Cloudy 4800 ft
Dew Point 53 °F
Humidity 73%
Rainfall 0.02 in
Snow Depth Not available.
UV 3 out of 12
Pollen 7.50 out of 12
Air Quality Not available.
Flu Activity Sporadic
SPECI KRME 022011Z 31004KT 10SM BKN029 BKN037 BKN048 17/11 A3015 RMK AO2 T01670106

More Conditions Fewer Conditions

Pressure 30.15 in
Visibility 10.0 miles
Clouds Mostly Cloudy 2900 ft
Mostly Cloudy 3700 ft
Mostly Cloudy 4800 ft
Dew Point 53 °F
Humidity 73%
Rainfall 0.02 in
Snow Depth Not available.
UV 3 out of 12
Pollen 7.50 out of 12
Air Quality Not available.
Flu Activity Sporadic
SPECI KRME 022011Z 31004KT 10SM BKN029 BKN037 BKN048 17/11 A3015 RMK AO2 T01670106

More Conditions Fewer Conditions

10-Day Weather Forecast

×

Almanac

Astronomy

Jun. 02, 2015 Rise Set
Actual Time
Civil Twilight
Nautical Twilight
Astronomical Twilight
Moon
Length of Visible Light
Length of Day
Tomorrow will be .
, % of the Moon is Illuminated

Today's Extremes

State Highs State Lows

Community

WunderPhotos

Upload Photos

1,826,025 photos uploaded!

WunderBlogs® & News

Nearby

Air Quality

  Air Quality AQ Index Pollutant
Not available.

Snow Depth

Station Depth Elevation

Earthquake Activity

City Distance Mag. Time & Date
Minimum magnitude displayed is 2.5.

Coastal Water Temperatures

Place Temperature

Stations

Nearby Weather Stations

Station Location Temp. Windchill Dew Point Humidity Wind Precip. Elev Updated Type